Time;durP1;ratioP1;P1;durP2;ratioP2;P2;SDS_P1;SDS_P2;PMS_P1;PMS_P2;Temp;Humidity;BMP_temperature;BMP_pressure;BME280_temperature;BME280_humidity;BME280_pressure;Samples;Min_cycle;Max_cycle;Signal;HPM_P1;HPM_P2
2023/03/16 00:02:08;;;;;;;11.67;3.07;;;2.80;99.90;;;;;;5067851;28;20060;-76
2023/03/16 00:04:36;;;;;;;7.30;2.83;;;3.10;99.90;;;;;;5034251;28;20437;-76
2023/03/16 00:07:07;;;;;;;11.33;3.33;;;2.80;99.90;;;;;;5052560;28;20128;-75
2023/03/16 00:09:33;;;;;;;11.32;4.25;;;2.80;99.90;;;;;;5050860;28;20052;-76
2023/03/16 00:12:02;;;;;;;6.87;3.00;;;2.80;99.90;;;;;;5068719;28;20044;-76
2023/03/16 00:14:29;;;;;;;7.37;2.90;;;2.80;99.90;;;;;;5068369;28;20048;-76
2023/03/16 00:16:55;;;;;;;9.23;2.67;;;2.90;99.90;;;;;;5053955;28;20086;-76
2023/03/16 00:19:21;;;;;;;8.07;2.70;;;2.80;99.90;;;;;;5049621;28;20465;-75
2023/03/16 00:21:51;;;;;;;6.00;2.90;;;3.30;99.90;;;;;;5068677;28;20076;-76
2023/03/16 00:24:18;;;;;;;10.27;3.53;;;3.10;99.90;;;;;;5048883;28;20139;-77
2023/03/16 00:26:47;;;;;;;10.67;3.37;;;2.90;99.90;;;;;;5053581;28;20441;-76
2023/03/16 00:29:13;;;;;;;8.43;3.27;;;2.90;99.90;;;;;;5067297;28;20552;-75
2023/03/16 00:31:42;;;;;;;9.93;4.27;;;3.70;99.90;;;;;;5075074;28;20044;-78
2023/03/16 00:34:11;;;;;;;9.00;4.03;;;3.00;99.90;;;;;;5067612;28;20080;-76
2023/03/16 00:36:37;;;;;;;9.07;3.63;;;3.00;99.90;;;;;;5054752;28;20048;-75
2023/03/16 00:39:05;;;;;;;9.30;4.17;;;3.00;99.90;;;;;;5067186;28;20044;-76
2023/03/16 00:41:31;;;;;;;15.67;5.87;;;3.10;99.90;;;;;;5051181;28;20051;-76
2023/03/16 00:43:57;;;;;;;9.70;3.50;;;3.10;99.90;;;;;;5069968;28;20044;-76
2023/03/16 00:46:25;;;;;;;14.00;4.73;;;3.10;99.90;;;;;;5072320;28;20049;-76
2023/03/16 00:48:51;;;;;;;9.40;3.30;;;3.30;99.90;;;;;;5064391;28;20053;-76
2023/03/16 00:51:18;;;;;;;24.03;8.03;;;3.10;99.90;;;;;;5066829;28;20052;-75
2023/03/16 00:53:45;;;;;;;8.97;3.03;;;3.20;99.90;;;;;;5066707;28;20040;-76
2023/03/16 00:56:12;;;;;;;14.90;5.03;;;3.20;99.90;;;;;;5059825;28;20040;-78
2023/03/16 00:58:41;;;;;;;11.97;5.17;;;3.40;99.90;;;;;;5061087;28;20390;-77
2023/03/16 01:01:19;;;;;;;20.73;6.87;;;3.30;99.90;;;;;;5068222;28;20059;-77
2023/03/16 01:03:45;;;;;;;19.53;7.50;;;3.30;99.90;;;;;;5068144;28;20045;-76
2023/03/16 01:06:15;;;;;;;32.60;11.13;;;3.40;99.90;;;;;;5060649;28;20101;-77
2023/03/16 01:08:42;;;;;;;24.20;9.10;;;3.30;99.90;;;;;;5044639;28;20119;-76
2023/03/16 01:11:19;;;;;;;13.30;5.67;;;3.30;99.90;;;;;;5067071;28;20056;-76
2023/03/16 01:13:46;;;;;;;19.03;6.97;;;3.40;99.90;;;;;;5067002;28;20040;-76
2023/03/16 01:16:12;;;;;;;19.87;7.47;;;3.30;99.90;;;;;;5043581;28;20129;-76
2023/03/16 01:18:38;;;;;;;10.23;3.87;;;3.20;99.90;;;;;;5062061;28;20059;-76
2023/03/16 01:21:06;;;;;;;14.63;4.40;;;3.30;99.90;;;;;;5072718;28;20049;-76
2023/03/16 01:23:32;;;;;;;15.27;6.83;;;3.30;99.90;;;;;;5053261;28;20045;-76
2023/03/16 01:25:59;;;;;;;10.93;4.97;;;3.30;99.90;;;;;;5072269;28;20379;-77
2023/03/16 01:28:27;;;;;;;11.87;4.97;;;3.40;99.90;;;;;;5055366;28;20368;-76
2023/03/16 01:30:56;;;;;;;14.23;4.93;;;3.50;99.90;;;;;;5072369;28;20443;-75
2023/03/16 01:33:23;;;;;;;15.30;5.43;;;3.40;99.90;;;;;;5066381;28;20335;-76
2023/03/16 01:35:57;;;;;;;19.80;7.10;;;4.00;99.90;;;;;;5071816;28;20052;-77
2023/03/16 01:38:23;;;;;;;14.53;4.70;;;3.40;99.90;;;;;;5056345;28;20131;-77
2023/03/16 01:40:50;;;;;;;19.80;7.80;;;3.40;99.90;;;;;;5072559;28;20208;-75
2023/03/16 01:43:18;;;;;;;17.67;8.60;;;3.40;99.90;;;;;;5071146;28;20051;-76
2023/03/16 01:46:03;;;;;;;12.37;5.00;;;3.40;99.90;;;;;;5054166;28;20444;-76
2023/03/16 01:48:47;;;;;;;21.83;8.83;;;3.40;99.90;;;;;;5038241;28;20047;-76
2023/03/16 01:51:26;;;;;;;10.00;4.17;;;3.40;99.90;;;;;;5064585;28;20051;-76
2023/03/16 01:54:00;;;;;;;20.30;6.77;;;3.40;99.90;;;;;;5035491;28;20083;-76
2023/03/16 01:56:42;;;;;;;15.20;6.20;;;3.40;99.90;;;;;;5059280;28;20491;-75
2023/03/16 01:59:13;;;;;;;12.73;5.97;;;3.30;99.90;;;;;;5070326;28;20048;-76
2023/03/16 02:01:38;;;;;;;5.60;2.90;;;3.40;99.90;;;;;;5053795;28;20064;-75
2023/03/16 02:04:23;;;;;;;10.07;3.60;;;3.50;99.90;;;;;;5069882;28;20262;-76
2023/03/16 02:06:50;;;;;;;8.20;3.27;;;3.30;99.90;;;;;;5037780;28;20060;-76
2023/03/16 02:09:18;;;;;;;7.40;3.17;;;3.60;99.90;;;;;;5070342;28;20047;-76
2023/03/16 02:11:43;;;;;;;9.10;3.40;;;3.20;99.90;;;;;;5054287;28;20546;-76
2023/03/16 02:14:11;;;;;;;10.07;3.30;;;3.40;99.90;;;;;;5070609;28;20059;-76
2023/03/16 02:16:37;;;;;;;8.37;3.40;;;3.00;99.90;;;;;;5056509;28;20131;-75
2023/03/16 02:19:08;;;;;;;8.13;3.47;;;3.00;99.90;;;;;;5050558;28;20105;-76
2023/03/16 02:22:00;;;;;;;7.03;3.30;;;2.90;99.90;;;;;;5037669;28;20052;-76
2023/03/16 02:24:27;;;;;;;11.93;3.70;;;3.00;99.90;;;;;;5052267;28;20536;-77
2023/03/16 02:27:04;;;;;;;7.07;3.67;;;3.00;99.90;;;;;;5054494;28;20449;-77
2023/03/16 02:29:48;;;;;;;7.67;4.00;;;2.90;99.90;;;;;;5069909;28;20582;-75
2023/03/16 02:32:15;;;;;;;13.33;4.20;;;3.00;99.90;;;;;;5070068;28;20410;-76
2023/03/16 02:34:41;;;;;;;8.40;3.67;;;3.40;99.90;;;;;;5053121;28;20052;-76
2023/03/16 02:37:07;;;;;;;8.17;3.97;;;3.10;99.90;;;;;;5055348;28;20055;-76
2023/03/16 02:39:33;;;;;;;10.37;4.20;;;3.10;99.90;;;;;;5052201;28;20498;-76
2023/03/16 02:42:00;;;;;;;8.23;3.83;;;3.10;99.90;;;;;;5053405;28;20078;-77
2023/03/16 02:44:32;;;;;;;9.23;4.20;;;3.40;99.90;;;;;;5040910;28;20044;-76
2023/03/16 02:47:10;;;;;;;9.00;4.20;;;3.00;99.90;;;;;;5059277;28;20052;-75
2023/03/16 02:49:40;;;;;;;8.87;4.23;;;3.00;99.90;;;;;;5050834;28;20338;-77
2023/03/16 02:52:07;;;;;;;8.67;4.60;;;3.10;99.90;;;;;;5056544;28;20041;-76
2023/03/16 02:54:33;;;;;;;11.00;4.50;;;3.10;99.90;;;;;;5070780;28;20045;-76
2023/03/16 02:56:58;;;;;;;13.20;4.63;;;3.10;99.90;;;;;;5055549;28;20114;-76
2023/03/16 02:59:24;;;;;;;10.30;4.50;;;3.10;99.90;;;;;;5051204;28;20068;-76
2023/03/16 03:01:50;;;;;;;18.03;5.17;;;3.10;99.90;;;;;;5069486;28;20047;-76
2023/03/16 03:04:16;;;;;;;9.40;4.60;;;3.10;99.90;;;;;;5068818;28;20127;-76
2023/03/16 03:06:42;;;;;;;8.83;4.73;;;3.10;99.90;;;;;;5054590;28;20090;-77
2023/03/16 03:09:10;;;;;;;11.33;4.83;;;3.30;99.90;;;;;;5068424;28;20087;-77
2023/03/16 03:11:37;;;;;;;10.17;4.53;;;3.20;99.90;;;;;;5052136;28;20079;-75
2023/03/16 03:14:03;;;;;;;11.37;4.67;;;3.20;99.90;;;;;;5068704;28;20159;-76
2023/03/16 03:16:30;;;;;;;10.47;4.73;;;3.20;99.90;;;;;;5057981;28;20049;-78
2023/03/16 03:18:56;;;;;;;13.33;5.17;;;3.20;99.90;;;;;;5049691;28;20051;-76
2023/03/16 03:21:22;;;;;;;9.47;5.30;;;3.20;99.90;;;;;;5052416;28;20572;-76
2023/03/16 03:23:48;;;;;;;12.83;5.10;;;3.20;99.90;;;;;;5069309;28;20063;-77
2023/03/16 03:26:15;;;;;;;11.20;5.17;;;3.30;99.90;;;;;;5060136;28;20123;-77
2023/03/16 03:28:42;;;;;;;9.53;5.23;;;3.20;99.90;;;;;;5046060;28;20433;-76
2023/03/16 03:31:13;;;;;;;9.00;5.10;;;3.20;99.90;;;;;;5053235;28;20108;-76
2023/03/16 03:33:39;;;;;;;11.67;5.80;;;3.20;99.90;;;;;;5054557;28;20434;-76
2023/03/16 03:36:05;;;;;;;11.17;5.57;;;3.30;99.90;;;;;;5048950;28;20048;-77
2023/03/16 03:38:31;;;;;;;11.83;6.10;;;3.30;99.90;;;;;;5023699;28;20040;-76
2023/03/16 03:40:59;;;;;;;11.17;5.57;;;3.30;99.90;;;;;;5051567;28;20084;-77
2023/03/16 03:43:25;;;;;;;9.80;5.70;;;3.30;99.90;;;;;;5069052;28;20102;-76
2023/03/16 03:46:00;;;;;;;12.07;6.27;;;3.30;99.90;;;;;;5086063;28;20048;-76
2023/03/16 03:48:27;;;;;;;9.77;5.40;;;2.90;99.90;;;;;;5018845;28;20044;-76
2023/03/16 03:50:53;;;;;;;13.17;5.83;;;3.40;99.90;;;;;;5064541;28;20043;-76
2023/03/16 03:53:19;;;;;;;9.57;5.60;;;3.40;99.90;;;;;;5054375;28;20500;-76
2023/03/16 03:55:45;;;;;;;12.03;5.17;;;3.40;99.90;;;;;;5051453;28;20049;-76
2023/03/16 03:58:13;;;;;;;16.67;6.37;;;3.40;99.90;;;;;;5052708;28;20084;-76
2023/03/16 04:00:39;;;;;;;9.00;5.43;;;3.40;99.90;;;;;;5069296;28;20071;-76
2023/03/16 04:03:05;;;;;;;10.43;5.80;;;3.50;99.90;;;;;;5067724;28;20558;-77
2023/03/16 04:05:31;;;;;;;12.57;5.97;;;3.40;99.90;;;;;;5051109;28;20051;-76
2023/03/16 04:07:58;;;;;;;13.03;5.70;;;3.50;99.90;;;;;;5052416;28;20748;-76
2023/03/16 04:10:25;;;;;;;10.90;5.57;;;3.50;99.90;;;;;;5050843;28;20403;-76
2023/03/16 04:12:51;;;;;;;13.40;5.93;;;3.50;99.90;;;;;;5068352;28;20410;-76
2023/03/16 04:15:17;;;;;;;9.20;5.60;;;3.40;99.90;;;;;;5051223;28;20135;-76
2023/03/16 04:17:42;;;;;;;10.57;5.23;;;3.40;99.90;;;;;;5052022;28;20049;-76
2023/03/16 04:20:13;;;;;;;12.47;6.33;;;3.40;99.90;;;;;;5068868;28;20051;-76
2023/03/16 04:22:41;;;;;;;9.63;5.50;;;3.50;99.90;;;;;;5050857;28;20051;-76
2023/03/16 04:25:11;;;;;;;10.90;5.33;;;3.50;99.90;;;;;;5051151;28;20056;-77
2023/03/16 04:27:37;;;;;;;14.77;5.67;;;3.40;99.90;;;;;;5051933;28;20057;-76
2023/03/16 04:30:04;;;;;;;12.30;5.70;;;3.50;99.90;;;;;;5050851;28;20049;-77
2023/03/16 04:32:32;;;;;;;11.10;4.97;;;3.50;99.90;;;;;;5061294;28;20036;-76
2023/03/16 04:34:57;;;;;;;11.77;5.27;;;4.20;99.90;;;;;;5054023;28;20041;-76
2023/03/16 04:37:23;;;;;;;12.93;5.70;;;3.70;99.90;;;;;;5053144;28;20115;-77
2023/03/16 04:39:49;;;;;;;10.67;5.50;;;3.50;99.90;;;;;;5067464;28;20049;-76
2023/03/16 04:42:14;;;;;;;8.40;5.03;;;3.50;99.90;;;;;;5067095;28;20063;-76
2023/03/16 04:44:42;;;;;;;12.87;5.37;;;3.50;99.90;;;;;;5068402;28;20470;-76
2023/03/16 04:47:09;;;;;;;9.47;4.87;;;3.50;99.90;;;;;;5052368;28;20053;-76
2023/03/16 04:49:34;;;;;;;10.13;6.10;;;3.50;99.90;;;;;;5068231;28;20056;-77
2023/03/16 04:52:00;;;;;;;7.80;4.70;;;3.60;99.90;;;;;;5069361;28;20052;-77
2023/03/16 04:54:26;;;;;;;7.43;4.50;;;3.60;99.90;;;;;;5073881;28;20048;-77
2023/03/16 04:56:52;;;;;;;9.20;4.60;;;3.60;99.90;;;;;;5059854;28;20048;-77
2023/03/16 04:59:18;;;;;;;7.67;4.57;;;3.60;99.90;;;;;;5056596;28;20410;-78
2023/03/16 05:01:43;;;;;;;10.53;4.50;;;3.60;99.90;;;;;;5074992;28;20137;-76
2023/03/16 05:04:09;;;;;;;11.47;4.93;;;3.60;99.90;;;;;;5074142;28;20060;-77
2023/03/16 05:06:35;;;;;;;8.30;4.27;;;3.80;99.90;;;;;;5043149;28;20048;-78
2023/03/16 05:09:01;;;;;;;10.00;4.30;;;3.70;99.90;;;;;;5071419;28;20056;-76
2023/03/16 05:11:27;;;;;;;7.83;4.83;;;3.80;99.90;;;;;;5056924;28;20052;-76
2023/03/16 05:13:52;;;;;;;9.37;4.63;;;3.70;99.90;;;;;;5056159;28;20051;-76
2023/03/16 05:16:18;;;;;;;10.07;4.77;;;3.70;99.90;;;;;;5064008;28;20052;-76
2023/03/16 05:18:44;;;;;;;11.00;6.43;;;3.70;99.90;;;;;;5069380;28;20057;-76
2023/03/16 05:21:09;;;;;;;11.27;5.03;;;3.60;99.90;;;;;;5074554;28;20055;-76
2023/03/16 05:23:35;;;;;;;10.17;5.37;;;3.70;99.90;;;;;;5055726;28;20051;-76
2023/03/16 05:26:01;;;;;;;9.73;4.80;;;3.60;99.90;;;;;;5074036;28;20083;-76
2023/03/16 05:28:27;;;;;;;9.63;4.57;;;4.40;99.90;;;;;;5058353;28;20068;-77
2023/03/16 05:30:53;;;;;;;11.83;5.50;;;3.60;99.90;;;;;;5075506;28;20048;-76
2023/03/16 05:33:20;;;;;;;10.83;4.80;;;3.60;99.90;;;;;;5087217;28;20288;-77
2023/03/16 05:35:46;;;;;;;12.07;5.40;;;3.60;99.90;;;;;;5057584;28;20052;-76
2023/03/16 05:38:14;;;;;;;9.97;5.30;;;3.60;99.90;;;;;;5059509;28;20063;-75
2023/03/16 05:40:41;;;;;;;8.70;5.27;;;3.60;99.90;;;;;;5074016;28;20127;-77
2023/03/16 05:43:06;;;;;;;9.50;5.30;;;3.70;99.90;;;;;;5071624;28;20525;-76
2023/03/16 05:45:32;;;;;;;9.30;5.03;;;3.70;99.90;;;;;;5074127;28;20083;-76
2023/03/16 05:47:58;;;;;;;10.07;5.10;;;3.70;99.90;;;;;;5039618;28;20036;-76
2023/03/16 05:50:24;;;;;;;10.97;5.93;;;3.80;99.90;;;;;;5071401;28;20044;-76
2023/03/16 05:52:50;;;;;;;8.10;4.90;;;3.70;99.90;;;;;;5052357;28;20048;-76
2023/03/16 05:55:17;;;;;;;7.47;5.00;;;3.70;99.90;;;;;;5074222;28;20053;-76
2023/03/16 05:57:43;;;;;;;10.50;5.80;;;3.70;99.90;;;;;;5057603;28;20084;-76
2023/03/16 06:00:15;;;;;;;11.67;5.93;;;3.70;99.90;;;;;;5059344;28;20393;-76
2023/03/16 06:02:46;;;;;;;10.33;5.60;;;3.70;99.90;;;;;;5038256;28;21027;-76
2023/03/16 06:05:12;;;;;;;13.23;5.70;;;3.70;99.90;;;;;;5070753;28;20059;-77
2023/03/16 06:07:38;;;;;;;11.93;5.40;;;3.70;99.90;;;;;;5053156;28;20040;-77
2023/03/16 06:10:04;;;;;;;9.03;5.50;;;3.80;99.90;;;;;;5068088;28;20391;-77
2023/03/16 06:12:30;;;;;;;9.93;5.70;;;3.70;99.90;;;;;;5068877;28;20508;-76
2023/03/16 06:14:56;;;;;;;10.97;5.57;;;3.70;99.90;;;;;;5070856;28;20049;-77
2023/03/16 06:17:22;;;;;;;10.20;6.37;;;3.70;99.90;;;;;;5050466;28;20052;-77
2023/03/16 06:19:47;;;;;;;10.03;6.10;;;3.70;99.90;;;;;;5045917;28;20040;-76
2023/03/16 06:22:13;;;;;;;15.03;5.90;;;3.70;99.90;;;;;;5068354;28;20448;-76
2023/03/16 06:24:39;;;;;;;12.23;5.63;;;3.70;99.90;;;;;;5069384;28;20048;-76
2023/03/16 06:27:04;;;;;;;12.27;6.03;;;3.70;99.90;;;;;;5053001;28;20487;-76
2023/03/16 06:29:30;;;;;;;9.87;5.57;;;3.70;99.90;;;;;;5070740;28;20048;-76
2023/03/16 06:31:56;;;;;;;10.07;6.10;;;3.70;99.90;;;;;;5071000;28;20048;-76
2023/03/16 06:34:22;;;;;;;11.27;6.13;;;3.70;99.90;;;;;;5066958;28;20101;-76
2023/03/16 06:36:47;;;;;;;10.77;6.13;;;3.70;99.90;;;;;;5051971;28;20071;-76
2023/03/16 06:39:13;;;;;;;10.47;5.57;;;3.70;99.90;;;;;;5033088;28;20117;-76
2023/03/16 06:41:41;;;;;;;10.23;6.10;;;3.80;99.90;;;;;;5067324;28;20044;-77
2023/03/16 06:44:07;;;;;;;11.30;5.70;;;3.80;99.90;;;;;;5049799;28;20040;-77
2023/03/16 06:46:33;;;;;;;10.53;5.70;;;3.80;99.90;;;;;;5041384;28;20044;-76
2023/03/16 06:48:59;;;;;;;8.87;5.63;;;3.80;99.90;;;;;;5054026;28;20437;-76
2023/03/16 06:51:26;;;;;;;12.17;5.77;;;3.90;99.90;;;;;;5057822;28;20055;-76
2023/03/16 06:53:51;;;;;;;8.50;6.10;;;3.80;99.90;;;;;;5041325;28;20044;-77
2023/03/16 06:56:17;;;;;;;11.83;6.20;;;3.80;99.90;;;;;;5053747;28;20052;-76
2023/03/16 06:58:43;;;;;;;8.43;5.47;;;3.80;99.90;;;;;;5058696;28;20048;-76
2023/03/16 07:01:08;;;;;;;11.27;6.80;;;3.90;99.90;;;;;;5064964;28;20075;-77
2023/03/16 07:03:34;;;;;;;9.93;5.57;;;3.90;99.90;;;;;;5062862;28;20060;-77
2023/03/16 07:06:00;;;;;;;12.00;5.67;;;3.90;99.90;;;;;;5066093;28;20459;-76
2023/03/16 07:08:26;;;;;;;10.87;5.93;;;4.00;99.90;;;;;;5049379;28;20056;-77
2023/03/16 07:10:53;;;;;;;8.87;5.60;;;4.00;99.90;;;;;;5064501;28;20045;-78
2023/03/16 07:13:19;;;;;;;13.53;6.00;;;4.00;99.90;;;;;;5046677;28;20049;-77
2023/03/16 07:15:45;;;;;;;8.73;5.60;;;4.10;99.90;;;;;;5053522;28;20048;-77
2023/03/16 07:18:13;;;;;;;10.80;5.73;;;4.10;99.90;;;;;;5038089;28;20581;-76
2023/03/16 07:20:39;;;;;;;7.17;4.97;;;4.10;99.90;;;;;;5060202;28;20048;-77
2023/03/16 07:23:05;;;;;;;9.73;5.50;;;4.20;99.90;;;;;;5046147;28;20102;-76
2023/03/16 07:25:30;;;;;;;12.43;5.57;;;4.20;99.90;;;;;;5059273;28;20055;-77
2023/03/16 07:27:56;;;;;;;10.90;5.33;;;4.20;99.90;;;;;;5046217;28;20064;-77
2023/03/16 07:30:24;;;;;;;11.53;5.23;;;4.20;99.90;;;;;;5030570;28;20072;-76
2023/03/16 07:32:50;;;;;;;10.17;5.70;;;4.20;99.90;;;;;;5062710;28;20394;-76
2023/03/16 07:35:16;;;;;;;10.47;5.53;;;4.30;99.90;;;;;;5065516;28;20048;-77
2023/03/16 07:37:42;;;;;;;9.37;5.53;;;4.30;99.90;;;;;;5051124;28;20277;-76
2023/03/16 07:40:08;;;;;;;8.73;5.30;;;4.30;99.90;;;;;;5041727;28;20051;-76
2023/03/16 07:42:35;;;;;;;12.40;5.63;;;4.30;99.90;;;;;;5059991;28;20398;-76
2023/03/16 07:45:02;;;;;;;11.10;5.27;;;4.30;99.90;;;;;;5056207;28;20074;-76
2023/03/16 07:47:29;;;;;;;10.87;5.60;;;4.40;99.90;;;;;;5049756;28;20040;-76
2023/03/16 07:49:55;;;;;;;10.13;5.30;;;4.50;99.90;;;;;;5060848;28;20048;-76
2023/03/16 07:52:20;;;;;;;8.17;5.33;;;4.50;99.90;;;;;;5053184;28;20059;-76
2023/03/16 07:54:47;;;;;;;11.17;5.00;;;4.50;99.90;;;;;;5054040;28;20135;-75
2023/03/16 07:57:13;;;;;;;8.23;5.27;;;4.60;99.90;;;;;;5038104;28;20127;-76
2023/03/16 07:59:40;;;;;;;9.30;5.20;;;4.50;99.90;;;;;;5053184;28;20488;-76
2023/03/16 08:02:10;;;;;;;13.47;5.23;;;4.60;99.90;;;;;;5054322;28;20137;-76
2023/03/16 08:04:36;;;;;;;10.63;5.37;;;4.60;99.90;;;;;;5053885;28;20056;-76
2023/03/16 08:07:02;;;;;;;9.10;5.40;;;4.70;99.90;;;;;;5040012;28;21042;-76
2023/03/16 08:09:28;;;;;;;7.93;5.57;;;4.60;99.90;;;;;;5043422;28;20068;-76
2023/03/16 08:11:53;;;;;;;9.83;5.97;;;4.50;99.90;;;;;;5032994;28;20550;-76
2023/03/16 08:14:19;;;;;;;13.27;6.00;;;4.50;99.90;;;;;;5035405;28;20418;-77
2023/03/16 08:16:46;;;;;;;10.67;5.37;;;4.50;99.90;;;;;;5040726;28;20134;-76
2023/03/16 08:19:12;;;;;;;9.50;5.33;;;4.50;99.90;;;;;;5053174;28;20143;-76
2023/03/16 08:21:37;;;;;;;10.60;5.20;;;4.40;99.90;;;;;;5037096;28;20048;-76
2023/03/16 08:24:03;;;;;;;10.23;5.47;;;4.40;99.90;;;;;;5055322;28;20057;-76
2023/03/16 08:26:29;;;;;;;11.27;5.83;;;4.40;99.90;;;;;;5049716;28;20044;-76
2023/03/16 08:28:57;;;;;;;10.57;5.67;;;4.40;99.90;;;;;;5040597;28;20131;-76
2023/03/16 08:31:24;;;;;;;9.90;5.60;;;4.40;99.90;;;;;;5034398;28;20055;-77
2023/03/16 08:33:50;;;;;;;10.13;5.50;;;4.40;99.90;;;;;;5066406;28;20143;-76
2023/03/16 08:36:17;;;;;;;10.10;5.83;;;4.40;99.90;;;;;;5045327;28;20052;-76
2023/03/16 08:38:43;;;;;;;9.63;5.20;;;4.40;99.90;;;;;;5042003;28;20052;-76
2023/03/16 08:41:11;;;;;;;12.77;8.20;;;4.40;99.90;;;;;;5048560;28;20051;-75
2023/03/16 08:43:37;;;;;;;10.30;6.13;;;4.40;99.90;;;;;;5046686;28;20163;-76
2023/03/16 08:46:04;;;;;;;9.53;6.00;;;4.40;99.90;;;;;;5046994;28;20049;-77
2023/03/16 08:48:32;;;;;;;9.30;5.53;;;4.40;99.90;;;;;;5047119;28;20080;-76
2023/03/16 08:51:04;;;;;;;7.87;5.43;;;4.50;99.90;;;;;;5053932;28;20162;-78
2023/03/16 08:53:30;;;;;;;10.07;5.75;;;4.50;99.90;;;;;;5047975;28;20123;-76
2023/03/16 08:56:11;;;;;;;9.83;6.40;;;4.60;99.90;;;;;;5048668;28;20135;-75
2023/03/16 08:58:38;;;;;;;9.50;6.10;;;4.60;99.90;;;;;;5018078;28;20448;-76
2023/03/16 09:01:05;;;;;;;8.10;6.00;;;4.60;99.90;;;;;;5047199;28;20063;-77
2023/03/16 09:03:34;;;;;;;9.47;5.90;;;4.50;99.90;;;;;;5027209;28;20502;-76
2023/03/16 09:06:06;;;;;;;9.43;5.63;;;4.50;99.90;;;;;;5042918;28;20049;-78
2023/03/16 09:08:31;;;;;;;12.33;6.53;;;4.60;99.90;;;;;;5016165;28;20689;-77
2023/03/16 09:11:01;;;;;;;9.67;5.63;;;4.60;99.90;;;;;;5047742;28;20111;-76
2023/03/16 09:13:27;;;;;;;11.47;6.60;;;4.50;99.90;;;;;;5028704;28;20798;-77
2023/03/16 09:15:53;;;;;;;10.00;6.63;;;4.50;99.90;;;;;;5047584;28;20806;-77
2023/03/16 09:18:20;;;;;;;9.30;6.23;;;4.50;99.90;;;;;;5017441;28;20444;-76
2023/03/16 09:20:46;;;;;;;11.40;6.20;;;4.50;99.90;;;;;;5030054;28;20441;-76
2023/03/16 09:23:13;;;;;;;12.53;6.83;;;4.40;99.90;;;;;;5028671;28;20079;-76
2023/03/16 09:25:39;;;;;;;10.90;6.70;;;4.50;99.90;;;;;;5047974;28;20059;-76
2023/03/16 09:28:05;;;;;;;12.27;6.67;;;4.50;99.90;;;;;;5013059;28;20439;-76
2023/03/16 09:30:31;;;;;;;10.60;7.03;;;4.60;99.90;;;;;;5047709;28;20061;-78
2023/03/16 09:32:58;;;;;;;10.40;6.70;;;4.50;99.90;;;;;;5049551;28;20639;-77
2023/03/16 09:35:24;;;;;;;11.87;7.17;;;4.60;99.90;;;;;;5048376;28;20049;-76
2023/03/16 09:37:49;;;;;;;13.33;6.93;;;4.60;99.90;;;;;;5033461;28;20102;-77
2023/03/16 09:40:27;;;;;;;12.47;7.50;;;4.70;99.90;;;;;;5033055;28;20048;-76
2023/03/16 09:43:28;;;;;;;11.77;6.73;;;4.70;99.90;;;;;;5031910;28;20048;-77
2023/03/16 09:46:11;;;;;;;10.02;6.28;;;4.80;99.90;;;;;;5051952;28;20510;-76
2023/03/16 09:48:39;;;;;;;11.47;7.30;;;4.90;99.90;;;;;;5010111;28;20063;-78
2023/03/16 09:51:15;;;;;;;10.03;6.27;;;5.00;99.90;;;;;;5033457;28;20376;-76
2023/03/16 09:53:40;;;;;;;15.80;7.13;;;5.00;99.90;;;;;;5049221;28;20056;-77
2023/03/16 09:56:14;;;;;;;12.17;7.07;;;5.10;99.90;;;;;;5045394;28;20414;-77
2023/03/16 09:58:40;;;;;;;12.27;7.00;;;4.90;99.90;;;;;;5027465;28;20052;-76
2023/03/16 10:01:15;;;;;;;11.37;6.63;;;4.90;99.90;;;;;;5016480;28;20118;-77
2023/03/16 10:03:50;;;;;;;11.87;6.93;;;4.80;99.90;;;;;;5049074;28;20064;-77
2023/03/16 10:06:16;;;;;;;11.50;7.33;;;4.90;99.90;;;;;;5040915;28;20511;-77
2023/03/16 10:08:58;;;;;;;10.40;7.17;;;4.90;99.90;;;;;;5044968;28;20533;-77
2023/03/16 10:11:36;;;;;;;11.20;8.20;;;4.90;99.90;;;;;;5014668;28;20060;-76
2023/03/16 10:14:41;;;;;;;13.93;7.07;;;5.00;99.90;;;;;;5048113;28;20127;-77
2023/03/16 10:17:07;;;;;;;13.37;7.33;;;5.10;99.90;;;;;;5039885;28;20056;-78
2023/03/16 10:19:42;;;;;;;12.90;7.70;;;5.20;99.90;;;;;;5034828;28;20058;-76
2023/03/16 10:22:16;;;;;;;12.53;7.13;;;5.10;99.90;;;;;;5031554;28;20059;-76
2023/03/16 10:24:56;;;;;;;12.17;7.20;;;5.20;99.90;;;;;;5051676;28;20056;-79
2023/03/16 10:27:28;;;;;;;12.67;7.00;;;5.20;99.90;;;;;;5039371;28;20054;-77
2023/03/16 10:29:55;;;;;;;10.97;6.97;;;5.10;99.90;;;;;;5051577;28;20044;-76
2023/03/16 10:32:23;;;;;;;11.73;6.27;;;5.10;99.90;;;;;;5053105;28;20550;-76
2023/03/16 10:34:57;;;;;;;8.53;6.23;;;5.10;99.90;;;;;;5049844;28;20903;-78
2023/03/16 10:37:25;;;;;;;13.43;6.97;;;5.10;99.90;;;;;;5018416;28;20099;-77
2023/03/16 10:39:51;;;;;;;12.23;6.60;;;5.10;99.90;;;;;;5051189;28;20049;-77
2023/03/16 10:42:20;;;;;;;11.33;6.93;;;5.10;99.90;;;;;;5018467;28;20528;-76
2023/03/16 10:44:46;;;;;;;10.17;6.43;;;5.10;99.90;;;;;;5039443;28;20052;-76
2023/03/16 10:47:23;;;;;;;8.73;6.37;;;5.20;99.90;;;;;;5033552;28;20048;-77
2023/03/16 10:49:50;;;;;;;10.43;6.83;;;5.20;99.90;;;;;;5049771;28;20052;-77
2023/03/16 10:52:18;;;;;;;13.30;6.43;;;5.20;99.90;;;;;;5032382;28;20143;-77
2023/03/16 10:54:55;;;;;;;13.33;6.73;;;5.20;99.90;;;;;;5049830;28;20452;-77
2023/03/16 10:57:40;;;;;;;15.53;6.20;;;5.20;99.90;;;;;;5015978;28;20055;-77
2023/03/16 11:00:20;;;;;;;10.87;6.13;;;5.30;99.90;;;;;;5051485;28;20052;-76
2023/03/16 11:02:50;;;;;;;14.07;7.53;;;5.30;99.90;;;;;;5050208;28;20135;-76
2023/03/16 11:05:16;;;;;;;11.30;5.47;;;5.40;99.90;;;;;;5035943;28;20926;-77
2023/03/16 11:07:57;;;;;;;17.57;10.03;;;5.40;99.90;;;;;;5042665;28;20140;-76
2023/03/16 11:10:29;;;;;;;;;;;5.40;99.90;;;;;;5033920;28;20581;-76
2023/03/16 11:13:01;;;;;;;13.02;5.93;;;5.50;99.90;;;;;;5044469;28;20126;-77
2023/03/16 11:15:27;;;;;;;;;;;5.60;99.90;;;;;;5052322;28;20060;-76
2023/03/16 11:17:53;;;;;;;10.77;5.60;;;5.70;99.90;;;;;;5040026;28;19928;-76
2023/03/16 11:20:27;;;;;;;9.40;5.93;;;5.70;99.90;;;;;;5046226;28;20551;-76
2023/03/16 11:22:53;;;;;;;6.77;5.10;;;5.90;99.90;;;;;;5049363;28;20053;-79
2023/03/16 11:25:34;;;;;;;8.77;5.37;;;6.00;99.90;;;;;;5048808;28;20048;-77
2023/03/16 11:28:10;;;;;;;10.50;5.85;;;6.10;99.90;;;;;;5033616;28;20123;-78
2023/03/16 11:30:52;;;;;;;12.33;5.27;;;6.20;99.90;;;;;;5045872;28;20060;-77
2023/03/16 11:33:18;;;;;;;7.17;5.30;;;6.30;99.90;;;;;;5032813;28;20109;-76
2023/03/16 11:35:56;;;;;;;10.10;5.40;;;6.20;99.90;;;;;;5047053;28;20052;-77
2023/03/16 11:38:53;;;;;;;10.80;5.43;;;6.30;99.90;;;;;;5016044;28;20048;-76
2023/03/16 11:41:41;;;;;;;9.87;5.50;;;6.30;99.90;;;;;;5055887;28;20052;-77
2023/03/16 11:44:26;;;;;;;13.20;5.63;;;6.30;99.90;;;;;;5058053;28;20055;-76
2023/03/16 11:47:17;;;;;;;7.90;4.80;;;6.30;99.90;;;;;;5045041;28;21573;-78
2023/03/16 11:50:11;;;;;;;9.43;4.80;;;6.40;99.90;;;;;;5046838;28;20417;-77
2023/03/16 11:52:54;;;;;;;8.47;4.57;;;6.40;99.90;;;;;;5050451;28;20048;-76
2023/03/16 11:55:28;;;;;;;8.20;4.57;;;6.50;99.90;;;;;;5039858;28;20045;-77
2023/03/16 11:58:02;;;;;;;8.43;4.87;;;6.60;99.90;;;;;;5040958;28;20052;-77
2023/03/16 12:00:58;;;;;;;7.53;4.83;;;6.60;99.90;;;;;;5046330;28;20143;-77
2023/03/16 12:03:53;;;;;;;6.80;4.93;;;6.60;99.90;;;;;;5048289;28;20056;-78
2023/03/16 12:06:41;;;;;;;8.57;4.80;;;6.90;99.90;;;;;;5037058;28;20098;-76
2023/03/16 12:09:49;;;;;;;7.90;4.43;;;6.90;99.90;;;;;;5030168;28;20159;-76
2023/03/16 12:12:16;;;;;;;6.50;4.40;;;7.10;99.90;;;;;;5028571;28;20411;-76
2023/03/16 12:15:05;;;;;;;7.53;4.40;;;7.20;99.90;;;;;;5046837;28;20060;-76
2023/03/16 12:17:36;;;;;;;7.70;4.17;;;7.40;99.90;;;;;;5041378;28;20119;-77
2023/03/16 12:20:12;;;;;;;6.25;4.38;;;7.50;99.90;;;;;;5056527;28;20071;-78
2023/03/16 12:22:45;;;;;;;8.07;4.47;;;7.50;99.90;;;;;;5048049;28;20407;-77
2023/03/16 12:25:19;;;;;;;8.77;4.97;;;7.50;99.90;;;;;;5048156;28;20134;-77
2023/03/16 12:27:48;;;;;;;9.43;4.27;;;7.60;99.90;;;;;;5013792;28;20040;-77
2023/03/16 12:30:37;;;;;;;7.90;4.43;;;7.70;99.90;;;;;;5048223;28;20067;-78
2023/03/16 12:33:20;;;;;;;7.17;4.20;;;7.70;99.90;;;;;;5060452;28;20041;-76
2023/03/16 12:35:57;;;;;;;6.27;3.53;;;7.80;99.90;;;;;;5050830;28;20515;-77
2023/03/16 12:38:44;;;;;;;8.10;4.37;;;7.80;99.90;;;;;;4998804;28;20617;-77
2023/03/16 12:41:33;;;;;;;7.13;3.87;;;7.80;99.90;;;;;;5048287;28;20552;-77
2023/03/16 12:44:19;;;;;;;8.07;4.63;;;7.90;99.90;;;;;;5047463;28;20398;-77
2023/03/16 12:47:07;;;;;;;6.53;3.90;;;7.80;99.90;;;;;;5033133;28;20430;-77
2023/03/16 12:49:35;;;;;;;5.47;3.90;;;7.90;99.90;;;;;;5053659;28;20049;-76
2023/03/16 12:52:05;;;;;;;6.40;3.90;;;7.80;99.90;;;;;;5054435;28;20126;-77
2023/03/16 12:54:32;;;;;;;7.80;4.10;;;7.90;99.90;;;;;;5051807;28;20825;-77
2023/03/16 12:57:06;;;;;;;8.90;4.03;;;7.80;99.90;;;;;;5037852;28;20521;-77
2023/03/16 12:59:44;;;;;;;7.20;3.70;;;7.90;99.90;;;;;;5012003;28;20057;-77
2023/03/16 13:02:21;;;;;;;6.73;3.93;;;7.90;99.90;;;;;;5047845;28;20071;-78
2023/03/16 13:04:54;;;;;;;9.50;4.07;;;7.80;99.90;;;;;;5046674;28;20061;-76